sensor_id;sensor_type;location;lat;lon;timestamp;temperature;humidity
73780;SHT30;62093;37.614;15.072;2023-10-31T00:02:16;21.06;66.99
73780;SHT30;62093;37.614;15.072;2023-10-31T00:04:42;21.03;67.03
73780;SHT30;62093;37.614;15.072;2023-10-31T00:07:08;21.04;67.06
73780;SHT30;62093;37.614;15.072;2023-10-31T00:09:34;21.03;67.07
73780;SHT30;62093;37.614;15.072;2023-10-31T00:12:00;21.03;67.06
73780;SHT30;62093;37.614;15.072;2023-10-31T00:14:26;21.03;67.08
73780;SHT30;62093;37.614;15.072;2023-10-31T00:16:52;21.04;67.05
73780;SHT30;62093;37.614;15.072;2023-10-31T00:19:18;21.02;67.04
73780;SHT30;62093;37.614;15.072;2023-10-31T00:21:44;21.03;67.11
73780;SHT30;62093;37.614;15.072;2023-10-31T00:24:10;21.00;67.08
73780;SHT30;62093;37.614;15.072;2023-10-31T00:26:36;21.00;67.10
73780;SHT30;62093;37.614;15.072;2023-10-31T00:29:02;21.02;67.10
73780;SHT30;62093;37.614;15.072;2023-10-31T00:31:28;21.02;67.11
73780;SHT30;62093;37.614;15.072;2023-10-31T00:33:53;21.04;67.06
73780;SHT30;62093;37.614;15.072;2023-10-31T00:36:21;21.02;67.09
73780;SHT30;62093;37.614;15.072;2023-10-31T00:38:46;21.03;67.13
73780;SHT30;62093;37.614;15.072;2023-10-31T00:41:12;21.02;67.14
73780;SHT30;62093;37.614;15.072;2023-10-31T00:43:39;21.00;67.11
73780;SHT30;62093;37.614;15.072;2023-10-31T00:46:04;21.02;67.12
73780;SHT30;62093;37.614;15.072;2023-10-31T00:48:30;21.00;67.13
73780;SHT30;62093;37.614;15.072;2023-10-31T00:51:04;21.00;67.20
73780;SHT30;62093;37.614;15.072;2023-10-31T00:53:31;21.02;67.21
73780;SHT30;62093;37.614;15.072;2023-10-31T00:55:57;21.00;67.18
73780;SHT30;62093;37.614;15.072;2023-10-31T00:58:23;20.99;67.19
73780;SHT30;62093;37.614;15.072;2023-10-31T01:00:49;20.99;67.23
73780;SHT30;62093;37.614;15.072;2023-10-31T01:03:15;21.00;67.23
73780;SHT30;62093;37.614;15.072;2023-10-31T01:05:40;20.97;67.20
73780;SHT30;62093;37.614;15.072;2023-10-31T01:08:06;20.99;67.23
73780;SHT30;62093;37.614;15.072;2023-10-31T01:10:32;20.97;67.19
73780;SHT30;62093;37.614;15.072;2023-10-31T01:12:58;20.99;67.22
73780;SHT30;62093;37.614;15.072;2023-10-31T01:15:23;20.97;67.27
73780;SHT30;62093;37.614;15.072;2023-10-31T01:17:49;20.96;67.26
73780;SHT30;62093;37.614;15.072;2023-10-31T01:20:15;20.97;67.28
73780;SHT30;62093;37.614;15.072;2023-10-31T01:22:41;20.96;67.27
73780;SHT30;62093;37.614;15.072;2023-10-31T01:25:07;20.97;67.30
73780;SHT30;62093;37.614;15.072;2023-10-31T01:27:33;20.93;67.30
73780;SHT30;62093;37.614;15.072;2023-10-31T01:29:59;20.95;67.31
73780;SHT30;62093;37.614;15.072;2023-10-31T01:32:25;20.95;67.30
73780;SHT30;62093;37.614;15.072;2023-10-31T01:34:50;20.93;67.32
73780;SHT30;62093;37.614;15.072;2023-10-31T01:37:16;20.95;67.35
73780;SHT30;62093;37.614;15.072;2023-10-31T01:39:45;20.95;67.35
73780;SHT30;62093;37.614;15.072;2023-10-31T01:42:13;20.96;67.32
73780;SHT30;62093;37.614;15.072;2023-10-31T01:44:40;20.95;67.29
73780;SHT30;62093;37.614;15.072;2023-10-31T01:47:06;20.92;67.31
73780;SHT30;62093;37.614;15.072;2023-10-31T01:49:32;20.92;67.26
73780;SHT30;62093;37.614;15.072;2023-10-31T01:52:01;20.90;67.31
73780;SHT30;62093;37.614;15.072;2023-10-31T01:54:29;20.92;67.36
73780;SHT30;62093;37.614;15.072;2023-10-31T01:56:56;20.92;67.42
73780;SHT30;62093;37.614;15.072;2023-10-31T01:59:25;20.92;67.38
73780;SHT30;62093;37.614;15.072;2023-10-31T02:01:51;20.90;67.38
73780;SHT30;62093;37.614;15.072;2023-10-31T02:04:16;20.92;67.38
73780;SHT30;62093;37.614;15.072;2023-10-31T02:06:42;20.90;67.42
73780;SHT30;62093;37.614;15.072;2023-10-31T02:09:08;20.93;67.40
73780;SHT30;62093;37.614;15.072;2023-10-31T02:11:34;20.92;67.39
73780;SHT30;62093;37.614;15.072;2023-10-31T02:14:01;20.92;67.43
73780;SHT30;62093;37.614;15.072;2023-10-31T02:16:27;20.92;67.39
73780;SHT30;62093;37.614;15.072;2023-10-31T02:18:53;20.93;67.39
73780;SHT30;62093;37.614;15.072;2023-10-31T02:21:19;20.92;67.41
73780;SHT30;62093;37.614;15.072;2023-10-31T02:23:59;20.90;67.43
73780;SHT30;62093;37.614;15.072;2023-10-31T02:26:29;20.90;67.44
73780;SHT30;62093;37.614;15.072;2023-10-31T02:28:55;20.92;67.43
73780;SHT30;62093;37.614;15.072;2023-10-31T02:31:21;20.89;67.46
73780;SHT30;62093;37.614;15.072;2023-10-31T02:33:47;20.89;67.45
73780;SHT30;62093;37.614;15.072;2023-10-31T02:36:13;20.90;67.46
73780;SHT30;62093;37.614;15.072;2023-10-31T02:38:39;20.89;67.46
73780;SHT30;62093;37.614;15.072;2023-10-31T02:41:05;20.87;67.46
73780;SHT30;62093;37.614;15.072;2023-10-31T02:43:31;20.90;67.45
73780;SHT30;62093;37.614;15.072;2023-10-31T02:45:56;20.89;67.43
73780;SHT30;62093;37.614;15.072;2023-10-31T02:48:23;20.87;67.49
73780;SHT30;62093;37.614;15.072;2023-10-31T02:50:49;20.87;67.51
73780;SHT30;62093;37.614;15.072;2023-10-31T02:53:17;20.89;67.45
73780;SHT30;62093;37.614;15.072;2023-10-31T02:55:43;20.86;67.44
73780;SHT30;62093;37.614;15.072;2023-10-31T02:58:09;20.87;67.50
73780;SHT30;62093;37.614;15.072;2023-10-31T03:00:35;20.89;67.48
73780;SHT30;62093;37.614;15.072;2023-10-31T03:03:00;20.87;67.50
73780;SHT30;62093;37.614;15.072;2023-10-31T03:05:26;20.87;67.54
73780;SHT30;62093;37.614;15.072;2023-10-31T03:07:52;20.87;67.50
73780;SHT30;62093;37.614;15.072;2023-10-31T03:10:19;20.83;67.57
73780;SHT30;62093;37.614;15.072;2023-10-31T03:12:45;20.86;67.59
73780;SHT30;62093;37.614;15.072;2023-10-31T03:15:12;20.85;67.52
73780;SHT30;62093;37.614;15.072;2023-10-31T03:17:38;20.83;67.56
73780;SHT30;62093;37.614;15.072;2023-10-31T03:20:04;20.85;67.53
73780;SHT30;62093;37.614;15.072;2023-10-31T03:22:30;20.83;67.52
73780;SHT30;62093;37.614;15.072;2023-10-31T03:24:56;20.83;67.55
73780;SHT30;62093;37.614;15.072;2023-10-31T03:27:22;20.85;67.57
73780;SHT30;62093;37.614;15.072;2023-10-31T03:29:48;20.85;67.51
73780;SHT30;62093;37.614;15.072;2023-10-31T03:32:14;20.85;67.58
73780;SHT30;62093;37.614;15.072;2023-10-31T03:34:41;20.83;67.59
73780;SHT30;62093;37.614;15.072;2023-10-31T03:37:06;20.83;67.58
73780;SHT30;62093;37.614;15.072;2023-10-31T03:39:32;20.83;67.57
73780;SHT30;62093;37.614;15.072;2023-10-31T03:41:59;20.83;67.56
73780;SHT30;62093;37.614;15.072;2023-10-31T03:44:25;20.86;67.58
73780;SHT30;62093;37.614;15.072;2023-10-31T03:46:51;20.83;67.55
73780;SHT30;62093;37.614;15.072;2023-10-31T03:49:17;20.86;67.57
73780;SHT30;62093;37.614;15.072;2023-10-31T03:51:42;20.80;67.60
73780;SHT30;62093;37.614;15.072;2023-10-31T03:54:08;20.82;67.62
73780;SHT30;62093;37.614;15.072;2023-10-31T03:56:42;20.82;67.64
73780;SHT30;62093;37.614;15.072;2023-10-31T03:59:08;20.80;67.59
73780;SHT30;62093;37.614;15.072;2023-10-31T04:01:34;20.80;67.61
73780;SHT30;62093;37.614;15.072;2023-10-31T04:04:01;20.80;67.67
73780;SHT30;62093;37.614;15.072;2023-10-31T04:06:28;20.79;67.61
73780;SHT30;62093;37.614;15.072;2023-10-31T04:08:53;20.79;67.65
73780;SHT30;62093;37.614;15.072;2023-10-31T04:11:20;20.83;67.59
73780;SHT30;62093;37.614;15.072;2023-10-31T04:13:46;20.82;67.60
73780;SHT30;62093;37.614;15.072;2023-10-31T04:16:12;20.83;67.60
73780;SHT30;62093;37.614;15.072;2023-10-31T04:18:38;20.77;67.66
73780;SHT30;62093;37.614;15.072;2023-10-31T04:21:04;20.77;67.70
73780;SHT30;62093;37.614;15.072;2023-10-31T04:23:29;20.79;67.70
73780;SHT30;62093;37.614;15.072;2023-10-31T04:25:55;20.82;67.66
73780;SHT30;62093;37.614;15.072;2023-10-31T04:28:21;20.77;67.71
73780;SHT30;62093;37.614;15.072;2023-10-31T04:30:47;20.80;67.71
73780;SHT30;62093;37.614;15.072;2023-10-31T04:33:13;20.77;67.74
73780;SHT30;62093;37.614;15.072;2023-10-31T04:35:38;20.79;67.75
73780;SHT30;62093;37.614;15.072;2023-10-31T04:38:05;20.77;67.72
73780;SHT30;62093;37.614;15.072;2023-10-31T04:40:31;20.77;67.68
73780;SHT30;62093;37.614;15.072;2023-10-31T04:42:57;20.82;67.76
73780;SHT30;62093;37.614;15.072;2023-10-31T04:45:22;20.76;67.81
73780;SHT30;62093;37.614;15.072;2023-10-31T04:47:48;20.79;67.77
73780;SHT30;62093;37.614;15.072;2023-10-31T04:50:14;20.82;67.77
73780;SHT30;62093;37.614;15.072;2023-10-31T04:52:40;20.80;67.77
73780;SHT30;62093;37.614;15.072;2023-10-31T04:55:07;20.77;67.75
73780;SHT30;62093;37.614;15.072;2023-10-31T04:57:33;20.79;67.75
73780;SHT30;62093;37.614;15.072;2023-10-31T04:59:59;20.80;67.78
73780;SHT30;62093;37.614;15.072;2023-10-31T05:02:25;20.80;67.77
73780;SHT30;62093;37.614;15.072;2023-10-31T05:04:51;20.80;67.78
73780;SHT30;62093;37.614;15.072;2023-10-31T05:07:17;20.82;67.78
73780;SHT30;62093;37.614;15.072;2023-10-31T05:09:43;20.79;67.83
73780;SHT30;62093;37.614;15.072;2023-10-31T05:12:09;20.79;67.85
73780;SHT30;62093;37.614;15.072;2023-10-31T05:14:35;20.79;67.87
73780;SHT30;62093;37.614;15.072;2023-10-31T05:17:01;20.79;67.90
73780;SHT30;62093;37.614;15.072;2023-10-31T05:19:27;20.79;67.87
73780;SHT30;62093;37.614;15.072;2023-10-31T05:21:52;20.77;67.88
73780;SHT30;62093;37.614;15.072;2023-10-31T05:24:18;20.77;67.91
73780;SHT30;62093;37.614;15.072;2023-10-31T05:26:44;20.77;67.91
73780;SHT30;62093;37.614;15.072;2023-10-31T05:29:11;20.79;67.92
73780;SHT30;62093;37.614;15.072;2023-10-31T05:31:37;20.80;67.91
73780;SHT30;62093;37.614;15.072;2023-10-31T05:34:03;20.79;67.91
73780;SHT30;62093;37.614;15.072;2023-10-31T05:36:29;20.76;67.92
73780;SHT30;62093;37.614;15.072;2023-10-31T05:38:55;20.79;67.95
73780;SHT30;62093;37.614;15.072;2023-10-31T05:41:21;20.79;67.91
73780;SHT30;62093;37.614;15.072;2023-10-31T05:43:46;20.80;67.98
73780;SHT30;62093;37.614;15.072;2023-10-31T05:46:12;20.77;67.97
73780;SHT30;62093;37.614;15.072;2023-10-31T05:48:41;20.77;67.99
73780;SHT30;62093;37.614;15.072;2023-10-31T05:51:17;20.76;67.94
73780;SHT30;62093;37.614;15.072;2023-10-31T05:53:45;20.79;67.97
73780;SHT30;62093;37.614;15.072;2023-10-31T05:56:13;20.77;67.99
73780;SHT30;62093;37.614;15.072;2023-10-31T05:58:40;20.77;67.98
73780;SHT30;62093;37.614;15.072;2023-10-31T06:01:06;20.79;67.96
73780;SHT30;62093;37.614;15.072;2023-10-31T06:03:33;20.79;68.01
73780;SHT30;62093;37.614;15.072;2023-10-31T06:05:59;20.76;68.01
73780;SHT30;62093;37.614;15.072;2023-10-31T06:08:25;20.80;67.97
73780;SHT30;62093;37.614;15.072;2023-10-31T06:10:55;20.79;67.94
73780;SHT30;62093;37.614;15.072;2023-10-31T06:13:21;20.77;67.97
73780;SHT30;62093;37.614;15.072;2023-10-31T06:15:47;20.76;67.94
73780;SHT30;62093;37.614;15.072;2023-10-31T06:18:13;20.77;67.93
73780;SHT30;62093;37.614;15.072;2023-10-31T06:20:39;20.77;67.95
73780;SHT30;62093;37.614;15.072;2023-10-31T06:23:05;20.82;67.88
73780;SHT30;62093;37.614;15.072;2023-10-31T06:25:31;20.82;67.91
73780;SHT30;62093;37.614;15.072;2023-10-31T06:27:57;20.80;67.91
73780;SHT30;62093;37.614;15.072;2023-10-31T06:30:23;20.79;67.92
73780;SHT30;62093;37.614;15.072;2023-10-31T06:32:51;20.80;67.92
73780;SHT30;62093;37.614;15.072;2023-10-31T06:35:17;20.82;67.92
73780;SHT30;62093;37.614;15.072;2023-10-31T06:37:42;20.85;67.86
73780;SHT30;62093;37.614;15.072;2023-10-31T06:40:09;20.82;67.83
73780;SHT30;62093;37.614;15.072;2023-10-31T06:42:35;20.83;67.80
73780;SHT30;62093;37.614;15.072;2023-10-31T06:45:01;20.80;67.82
73780;SHT30;62093;37.614;15.072;2023-10-31T06:47:27;20.83;67.78
73780;SHT30;62093;37.614;15.072;2023-10-31T06:49:53;20.83;67.80
73780;SHT30;62093;37.614;15.072;2023-10-31T06:52:19;20.83;67.81
73780;SHT30;62093;37.614;15.072;2023-10-31T06:54:44;20.85;67.77
73780;SHT30;62093;37.614;15.072;2023-10-31T06:57:10;20.83;67.73
73780;SHT30;62093;37.614;15.072;2023-10-31T06:59:36;20.87;67.71
73780;SHT30;62093;37.614;15.072;2023-10-31T07:02:02;20.89;67.65
73780;SHT30;62093;37.614;15.072;2023-10-31T07:04:27;20.86;67.72
73780;SHT30;62093;37.614;15.072;2023-10-31T07:06:53;20.86;67.68
73780;SHT30;62093;37.614;15.072;2023-10-31T07:09:26;20.86;67.68
73780;SHT30;62093;37.614;15.072;2023-10-31T07:11:53;20.89;67.65
73780;SHT30;62093;37.614;15.072;2023-10-31T07:14:19;20.89;67.63
73780;SHT30;62093;37.614;15.072;2023-10-31T07:16:44;20.90;67.61
73780;SHT30;62093;37.614;15.072;2023-10-31T07:19:10;20.90;67.57
73780;SHT30;62093;37.614;15.072;2023-10-31T07:21:36;20.92;67.59
73780;SHT30;62093;37.614;15.072;2023-10-31T07:24:02;20.90;67.62
73780;SHT30;62093;37.614;15.072;2023-10-31T07:26:28;20.93;67.54
73780;SHT30;62093;37.614;15.072;2023-10-31T07:28:54;20.93;67.62
73780;SHT30;62093;37.614;15.072;2023-10-31T07:31:20;20.93;67.58
73780;SHT30;62093;37.614;15.072;2023-10-31T07:33:45;20.92;67.62
73780;SHT30;62093;37.614;15.072;2023-10-31T07:36:11;20.96;67.63
73780;SHT30;62093;37.614;15.072;2023-10-31T07:38:37;20.95;67.64
73780;SHT30;62093;37.614;15.072;2023-10-31T07:41:03;20.95;67.56
73780;SHT30;62093;37.614;15.072;2023-10-31T07:43:29;20.95;67.63
73780;SHT30;62093;37.614;15.072;2023-10-31T07:45:55;20.96;67.50
73780;SHT30;62093;37.614;15.072;2023-10-31T07:48:21;20.96;67.53
73780;SHT30;62093;37.614;15.072;2023-10-31T07:50:47;20.97;67.46
73780;SHT30;62093;37.614;15.072;2023-10-31T07:53:12;20.96;67.47
73780;SHT30;62093;37.614;15.072;2023-10-31T07:55:38;20.96;67.48
73780;SHT30;62093;37.614;15.072;2023-10-31T07:58:04;20.97;67.46
73780;SHT30;62093;37.614;15.072;2023-10-31T08:00:29;20.99;67.47
73780;SHT30;62093;37.614;15.072;2023-10-31T08:02:56;20.99;67.48
73780;SHT30;62093;37.614;15.072;2023-10-31T08:05:22;21.00;67.43
73780;SHT30;62093;37.614;15.072;2023-10-31T08:07:48;20.97;67.44
73780;SHT30;62093;37.614;15.072;2023-10-31T08:10:13;21.00;67.50
73780;SHT30;62093;37.614;15.072;2023-10-31T08:12:39;21.03;67.53
73780;SHT30;62093;37.614;15.072;2023-10-31T08:15:05;21.00;67.45
73780;SHT30;62093;37.614;15.072;2023-10-31T08:17:31;21.04;67.38
73780;SHT30;62093;37.614;15.072;2023-10-31T08:19:57;21.03;67.33
73780;SHT30;62093;37.614;15.072;2023-10-31T08:22:23;21.03;67.37
73780;SHT30;62093;37.614;15.072;2023-10-31T08:24:49;21.02;67.37
73780;SHT30;62093;37.614;15.072;2023-10-31T08:27:15;21.03;67.38
73780;SHT30;62093;37.614;15.072;2023-10-31T08:29:40;21.06;67.38
73780;SHT30;62093;37.614;15.072;2023-10-31T08:32:07;21.07;67.48
73780;SHT30;62093;37.614;15.072;2023-10-31T08:34:33;21.04;67.47
73780;SHT30;62093;37.614;15.072;2023-10-31T08:36:59;21.04;67.44
73780;SHT30;62093;37.614;15.072;2023-10-31T08:39:26;21.07;67.35
73780;SHT30;62093;37.614;15.072;2023-10-31T08:41:52;21.08;67.38
73780;SHT30;62093;37.614;15.072;2023-10-31T08:44:18;21.08;67.28
73780;SHT30;62093;37.614;15.072;2023-10-31T08:46:44;21.08;67.28
73780;SHT30;62093;37.614;15.072;2023-10-31T08:49:10;21.07;67.28
73780;SHT30;62093;37.614;15.072;2023-10-31T08:51:35;21.11;67.24
73780;SHT30;62093;37.614;15.072;2023-10-31T08:54:01;21.10;67.25
73780;SHT30;62093;37.614;15.072;2023-10-31T08:56:27;21.10;67.26
73780;SHT30;62093;37.614;15.072;2023-10-31T08:58:53;21.14;67.22
73780;SHT30;62093;37.614;15.072;2023-10-31T09:01:19;21.10;67.19
73780;SHT30;62093;37.614;15.072;2023-10-31T09:03:45;21.13;67.20
73780;SHT30;62093;37.614;15.072;2023-10-31T09:06:11;21.14;67.16
73780;SHT30;62093;37.614;15.072;2023-10-31T09:08:37;21.13;67.26
73780;SHT30;62093;37.614;15.072;2023-10-31T09:11:05;21.14;67.26
73780;SHT30;62093;37.614;15.072;2023-10-31T09:13:31;21.14;67.20
73780;SHT30;62093;37.614;15.072;2023-10-31T09:15:58;21.16;67.17
73780;SHT30;62093;37.614;15.072;2023-10-31T09:18:24;21.17;67.13
73780;SHT30;62093;37.614;15.072;2023-10-31T09:20:51;21.19;67.05
73780;SHT30;62093;37.614;15.072;2023-10-31T09:23:17;21.20;67.05
73780;SHT30;62093;37.614;15.072;2023-10-31T09:25:44;21.22;66.99
73780;SHT30;62093;37.614;15.072;2023-10-31T09:28:10;21.22;66.95
73780;SHT30;62093;37.614;15.072;2023-10-31T09:30:36;21.20;66.95
73780;SHT30;62093;37.614;15.072;2023-10-31T09:33:02;21.26;66.98
73780;SHT30;62093;37.614;15.072;2023-10-31T09:35:28;21.26;66.90
73780;SHT30;62093;37.614;15.072;2023-10-31T09:37:54;21.26;66.90
73780;SHT30;62093;37.614;15.072;2023-10-31T09:40:20;21.26;66.83
73780;SHT30;62093;37.614;15.072;2023-10-31T09:42:48;21.26;66.79
73780;SHT30;62093;37.614;15.072;2023-10-31T09:45:15;21.28;66.73
73780;SHT30;62093;37.614;15.072;2023-10-31T09:47:41;21.30;66.74
73780;SHT30;62093;37.614;15.072;2023-10-31T09:50:08;21.31;66.70
73780;SHT30;62093;37.614;15.072;2023-10-31T09:52:38;21.30;66.64
73780;SHT30;62093;37.614;15.072;2023-10-31T09:55:05;21.33;66.60
73780;SHT30;62093;37.614;15.072;2023-10-31T09:57:31;21.33;66.63
73780;SHT30;62093;37.614;15.072;2023-10-31T09:59:57;21.34;66.62
73780;SHT30;62093;37.614;15.072;2023-10-31T10:02:23;21.37;66.51
73780;SHT30;62093;37.614;15.072;2023-10-31T10:04:49;21.36;66.50
73780;SHT30;62093;37.614;15.072;2023-10-31T10:07:16;21.37;66.42
73780;SHT30;62093;37.614;15.072;2023-10-31T10:09:47;21.37;66.51
73780;SHT30;62093;37.614;15.072;2023-10-31T10:12:15;21.38;66.50
73780;SHT30;62093;37.614;15.072;2023-10-31T10:14:41;21.38;66.41
73780;SHT30;62093;37.614;15.072;2023-10-31T10:17:24;21.40;66.39
73780;SHT30;62093;37.614;15.072;2023-10-31T10:20:08;21.40;66.35
73780;SHT30;62093;37.614;15.072;2023-10-31T10:22:39;21.41;66.32
73780;SHT30;62093;37.614;15.072;2023-10-31T10:25:09;21.43;66.30
73780;SHT30;62093;37.614;15.072;2023-10-31T10:27:37;21.41;66.33
73780;SHT30;62093;37.614;15.072;2023-10-31T10:30:04;21.43;66.31
73780;SHT30;62093;37.614;15.072;2023-10-31T10:32:30;21.43;66.31
73780;SHT30;62093;37.614;15.072;2023-10-31T10:34:56;21.43;66.31
73780;SHT30;62093;37.614;15.072;2023-10-31T10:37:23;21.44;66.19
73780;SHT30;62093;37.614;15.072;2023-10-31T10:39:51;21.46;66.17
73780;SHT30;62093;37.614;15.072;2023-10-31T10:42:37;21.47;66.24
73780;SHT30;62093;37.614;15.072;2023-10-31T10:45:10;21.46;66.09
73780;SHT30;62093;37.614;15.072;2023-10-31T10:47:37;21.47;66.11
73780;SHT30;62093;37.614;15.072;2023-10-31T10:50:05;21.47;66.10
73780;SHT30;62093;37.614;15.072;2023-10-31T10:53:29;21.51;66.11
73780;SHT30;62093;37.614;15.072;2023-10-31T10:56:00;21.48;66.07
73780;SHT30;62093;37.614;15.072;2023-10-31T10:58:47;21.54;66.00
73780;SHT30;62093;37.614;15.072;2023-10-31T11:01:16;21.53;66.03
73780;SHT30;62093;37.614;15.072;2023-10-31T11:03:45;21.53;65.99
73780;SHT30;62093;37.614;15.072;2023-10-31T11:06:12;21.53;65.97
73780;SHT30;62093;37.614;15.072;2023-10-31T11:08:39;21.53;65.88
73780;SHT30;62093;37.614;15.072;2023-10-31T11:11:05;21.54;65.86
73780;SHT30;62093;37.614;15.072;2023-10-31T11:13:32;21.54;65.90
73780;SHT30;62093;37.614;15.072;2023-10-31T11:16:03;21.55;65.82
73780;SHT30;62093;37.614;15.072;2023-10-31T11:18:30;21.57;65.83
73780;SHT30;62093;37.614;15.072;2023-10-31T11:20:56;21.55;65.81
73780;SHT30;62093;37.614;15.072;2023-10-31T11:23:22;21.57;65.82
73780;SHT30;62093;37.614;15.072;2023-10-31T11:25:50;21.59;65.75
73780;SHT30;62093;37.614;15.072;2023-10-31T11:28:19;21.57;65.77
73780;SHT30;62093;37.614;15.072;2023-10-31T11:30:50;21.61;65.69
73780;SHT30;62093;37.614;15.072;2023-10-31T11:33:20;21.61;65.73
73780;SHT30;62093;37.614;15.072;2023-10-31T11:36:00;21.59;65.74
73780;SHT30;62093;37.614;15.072;2023-10-31T11:38:36;21.61;65.69
73780;SHT30;62093;37.614;15.072;2023-10-31T11:41:04;21.61;65.73
73780;SHT30;62093;37.614;15.072;2023-10-31T11:43:56;21.62;65.71
73780;SHT30;62093;37.614;15.072;2023-10-31T11:46:24;21.59;65.68
73780;SHT30;62093;37.614;15.072;2023-10-31T11:48:55;21.61;65.64
73780;SHT30;62093;37.614;15.072;2023-10-31T11:51:25;21.64;65.66
73780;SHT30;62093;37.614;15.072;2023-10-31T11:53:52;21.64;65.61
73780;SHT30;62093;37.614;15.072;2023-10-31T11:56:19;21.64;65.59
73780;SHT30;62093;37.614;15.072;2023-10-31T11:58:58;21.67;65.56
73780;SHT30;62093;37.614;15.072;2023-10-31T12:01:24;21.65;65.57
73780;SHT30;62093;37.614;15.072;2023-10-31T12:03:50;21.67;65.57
73780;SHT30;62093;37.614;15.072;2023-10-31T12:06:17;21.68;65.57
73780;SHT30;62093;37.614;15.072;2023-10-31T12:08:46;21.68;65.57
73780;SHT30;62093;37.614;15.072;2023-10-31T12:11:21;21.68;65.54
73780;SHT30;62093;37.614;15.072;2023-10-31T12:14:00;21.71;65.58
73780;SHT30;62093;37.614;15.072;2023-10-31T12:16:28;21.73;65.57
73780;SHT30;62093;37.614;15.072;2023-10-31T12:18:59;21.73;65.63
73780;SHT30;62093;37.614;15.072;2023-10-31T12:21:44;21.71;65.60
73780;SHT30;62093;37.614;15.072;2023-10-31T12:24:17;21.69;65.58
73780;SHT30;62093;37.614;15.072;2023-10-31T12:26:44;21.69;65.58
73780;SHT30;62093;37.614;15.072;2023-10-31T12:29:17;21.73;65.51
73780;SHT30;62093;37.614;15.072;2023-10-31T12:31:45;21.71;65.49
73780;SHT30;62093;37.614;15.072;2023-10-31T12:34:11;21.69;65.48
73780;SHT30;62093;37.614;15.072;2023-10-31T12:36:38;21.71;65.47
73780;SHT30;62093;37.614;15.072;2023-10-31T12:39:05;21.71;65.42
73780;SHT30;62093;37.614;15.072;2023-10-31T12:41:32;21.73;65.48
73780;SHT30;62093;37.614;15.072;2023-10-31T12:43:59;21.73;65.38
73780;SHT30;62093;37.614;15.072;2023-10-31T12:48:52;21.74;65.45
73780;SHT30;62093;37.614;15.072;2023-10-31T12:51:18;21.74;65.43
73780;SHT30;62093;37.614;15.072;2023-10-31T12:53:49;21.73;65.36
73780;SHT30;62093;37.614;15.072;2023-10-31T12:59:09;21.75;65.39
73780;SHT30;62093;37.614;15.072;2023-10-31T13:01:44;21.77;65.27
73780;SHT30;62093;37.614;15.072;2023-10-31T13:04:10;21.78;65.27
73780;SHT30;62093;37.614;15.072;2023-10-31T13:06:37;21.77;65.22
73780;SHT30;62093;37.614;15.072;2023-10-31T13:09:03;21.77;65.26
73780;SHT30;62093;37.614;15.072;2023-10-31T13:11:39;21.79;65.25
73780;SHT30;62093;37.614;15.072;2023-10-31T13:14:05;21.79;65.24
73780;SHT30;62093;37.614;15.072;2023-10-31T13:16:32;21.79;65.19
73780;SHT30;62093;37.614;15.072;2023-10-31T13:18:59;21.79;65.17
73780;SHT30;62093;37.614;15.072;2023-10-31T13:21:24;21.79;65.20
73780;SHT30;62093;37.614;15.072;2023-10-31T13:23:50;21.82;65.06
73780;SHT30;62093;37.614;15.072;2023-10-31T13:26:16;21.81;65.17
73780;SHT30;62093;37.614;15.072;2023-10-31T13:28:42;21.81;65.21
73780;SHT30;62093;37.614;15.072;2023-10-31T13:31:09;21.78;65.23
73780;SHT30;62093;37.614;15.072;2023-10-31T13:33:36;21.79;65.12
73780;SHT30;62093;37.614;15.072;2023-10-31T13:36:02;21.82;65.09
73780;SHT30;62093;37.614;15.072;2023-10-31T13:38:29;21.79;65.24
73780;SHT30;62093;37.614;15.072;2023-10-31T13:40:55;21.79;65.30
73780;SHT30;62093;37.614;15.072;2023-10-31T13:43:21;21.79;65.23
73780;SHT30;62093;37.614;15.072;2023-10-31T13:45:47;21.81;65.22
73780;SHT30;62093;37.614;15.072;2023-10-31T13:48:13;21.79;65.27
73780;SHT30;62093;37.614;15.072;2023-10-31T13:50:40;21.79;65.26
73780;SHT30;62093;37.614;15.072;2023-10-31T13:53:06;21.78;65.33
73780;SHT30;62093;37.614;15.072;2023-10-31T13:55:33;21.79;65.34
73780;SHT30;62093;37.614;15.072;2023-10-31T13:57:59;21.77;65.32
73780;SHT30;62093;37.614;15.072;2023-10-31T14:00:24;21.81;65.29
73780;SHT30;62093;37.614;15.072;2023-10-31T14:02:50;21.78;65.22
73780;SHT30;62093;37.614;15.072;2023-10-31T14:05:16;21.77;65.33
73780;SHT30;62093;37.614;15.072;2023-10-31T14:07:42;21.79;65.32
73780;SHT30;62093;37.614;15.072;2023-10-31T14:10:09;21.77;65.32
73780;SHT30;62093;37.614;15.072;2023-10-31T14:12:34;21.79;65.25
73780;SHT30;62093;37.614;15.072;2023-10-31T14:15:00;21.78;65.27
73780;SHT30;62093;37.614;15.072;2023-10-31T14:17:26;21.79;65.33
73780;SHT30;62093;37.614;15.072;2023-10-31T14:19:52;21.79;65.33
73780;SHT30;62093;37.614;15.072;2023-10-31T14:22:18;21.79;65.31
73780;SHT30;62093;37.614;15.072;2023-10-31T14:24:43;21.79;65.34
73780;SHT30;62093;37.614;15.072;2023-10-31T14:27:09;21.78;65.20
73780;SHT30;62093;37.614;15.072;2023-10-31T14:29:35;21.79;65.33
73780;SHT30;62093;37.614;15.072;2023-10-31T14:32:08;21.78;65.37
73780;SHT30;62093;37.614;15.072;2023-10-31T14:34:35;21.79;65.33
73780;SHT30;62093;37.614;15.072;2023-10-31T14:37:01;21.78;65.33
73780;SHT30;62093;37.614;15.072;2023-10-31T14:39:27;21.79;65.36
73780;SHT30;62093;37.614;15.072;2023-10-31T14:41:52;21.78;65.36
73780;SHT30;62093;37.614;15.072;2023-10-31T14:44:18;21.79;65.26
73780;SHT30;62093;37.614;15.072;2023-10-31T14:46:44;21.79;65.37
73780;SHT30;62093;37.614;15.072;2023-10-31T14:49:10;21.78;65.37
73780;SHT30;62093;37.614;15.072;2023-10-31T14:51:36;21.78;65.26
73780;SHT30;62093;37.614;15.072;2023-10-31T14:54:02;21.79;65.42
73780;SHT30;62093;37.614;15.072;2023-10-31T14:56:28;21.77;65.33
73780;SHT30;62093;37.614;15.072;2023-10-31T14:58:55;21.78;65.41
73780;SHT30;62093;37.614;15.072;2023-10-31T15:01:21;21.75;65.30
73780;SHT30;62093;37.614;15.072;2023-10-31T15:03:47;21.77;65.27
73780;SHT30;62093;37.614;15.072;2023-10-31T15:06:12;21.77;65.31
73780;SHT30;62093;37.614;15.072;2023-10-31T15:08:40;21.77;65.25
73780;SHT30;62093;37.614;15.072;2023-10-31T15:11:06;21.78;65.33
73780;SHT30;62093;37.614;15.072;2023-10-31T15:13:32;21.77;65.39
73780;SHT30;62093;37.614;15.072;2023-10-31T15:15:58;21.75;65.30
73780;SHT30;62093;37.614;15.072;2023-10-31T15:18:24;21.77;65.37
73780;SHT30;62093;37.614;15.072;2023-10-31T15:20:49;21.79;65.49